createdAt,value
2018-09-04T00:00:52.115Z,97567.97
2018-09-04T00:03:21.212Z,97558.98
2018-09-04T00:05:50.321Z,97561.36
2018-09-04T00:08:19.413Z,97563.75
2018-09-04T00:10:48.594Z,97565.61
2018-09-04T00:13:17.714Z,97571.56
2018-09-04T00:15:46.824Z,97567.16
2018-09-04T00:18:15.942Z,97567.33
2018-09-04T00:20:45.106Z,97563.77
2018-09-04T00:23:14.231Z,97559.36
2018-09-04T00:25:43.817Z,97559.36
2018-09-04T00:28:12.928Z,97565.00
2018-09-04T00:30:42.131Z,97562.80
2018-09-04T00:33:11.284Z,97557.89
2018-09-04T00:35:40.728Z,97558.40
2018-09-04T00:38:09.923Z,97553.99
2018-09-04T00:40:39.046Z,97555.02
2018-09-04T00:43:08.189Z,97551.97
2018-09-04T00:45:37.376Z,97547.89
2018-09-04T00:48:06.485Z,97549.77
2018-09-04T00:50:35.996Z,97545.02
2018-09-04T00:53:05.129Z,97547.23
2018-09-04T00:55:34.272Z,97552.84
2018-09-04T00:58:03.558Z,97549.61
2018-09-04T01:00:33.131Z,97552.84
2018-09-04T01:03:02.278Z,97559.33
2018-09-04T01:05:31.427Z,97558.98
2018-09-04T01:08:00.739Z,97564.94
2018-09-04T01:10:29.851Z,97552.38
2018-09-04T01:12:59.006Z,97547.98
2018-09-04T01:15:28.480Z,97547.64
2018-09-04T01:17:57.649Z,97546.28
2018-09-04T01:20:26.856Z,97545.11
2018-09-04T01:22:56.377Z,97541.21
2018-09-04T01:25:25.491Z,97546.64
2018-09-04T01:27:54.660Z,97542.57
2018-09-04T01:30:23.921Z,97537.86
2018-09-04T01:32:53.045Z,97544.14
2018-09-04T01:35:22.330Z,97534.30
2018-09-04T01:37:51.552Z,97537.20
2018-09-04T01:40:20.715Z,97541.60
2018-09-04T01:42:50.376Z,97536.86
2018-09-04T01:45:19.596Z,97537.38
2018-09-04T01:47:48.725Z,97537.89
2018-09-04T01:50:17.840Z,97540.27
2018-09-04T01:52:46.980Z,97546.03
2018-09-04T01:55:16.145Z,97540.78
2018-09-04T01:57:45.303Z,97549.43
2018-09-04T02:00:14.436Z,97541.30
2018-09-04T02:02:43.837Z,97536.04
2018-09-04T02:05:13.031Z,97543.37
2018-09-04T02:07:42.284Z,97537.94
2018-09-04T02:10:11.428Z,97537.09
2018-09-04T02:12:40.524Z,97541.17
2018-09-04T02:15:09.651Z,97528.11
2018-09-04T02:17:39.111Z,97531.52
2018-09-04T02:20:08.268Z,97532.88
2018-09-04T02:22:37.564Z,97534.41
2018-09-04T02:25:07.629Z,97532.02
2018-09-04T02:27:36.801Z,97528.98
2018-09-04T02:30:06.287Z,97526.77
2018-09-04T02:32:35.536Z,97522.70
2018-09-04T02:35:05.163Z,97522.37
2018-09-04T02:37:34.472Z,97526.44
2018-09-04T02:40:03.633Z,97519.66
2018-09-04T02:42:32.770Z,97515.25
2018-09-04T02:45:01.953Z,97518.30
2018-09-04T02:47:31.573Z,97514.73
2018-09-04T02:50:00.707Z,97519.83
2018-09-04T02:52:29.842Z,97512.72
2018-09-04T02:54:58.986Z,97518.14
2018-09-04T02:57:28.236Z,97521.91
2018-09-04T02:59:57.867Z,97517.33
2018-09-04T03:02:27.033Z,97510.55
2018-09-04T03:04:56.721Z,97518.69
2018-09-04T03:07:25.834Z,97518.69
2018-09-04T03:09:54.974Z,97512.59
2018-09-04T03:12:24.139Z,97518.53
2018-09-04T03:14:53.311Z,97521.24
2018-09-04T03:17:23.108Z,97520.40
2018-09-04T03:19:52.352Z,97518.53
2018-09-04T03:22:21.508Z,97522.78
2018-09-04T03:24:50.652Z,97514.64
2018-09-04T03:27:19.820Z,97514.81
2018-09-04T03:29:48.964Z,97510.75
2018-09-04T03:32:18.119Z,97509.05
2018-09-04T03:34:47.349Z,97508.72
2018-09-04T03:37:17.557Z,97512.28
2018-09-04T03:39:46.657Z,97510.28
2018-09-04T03:42:15.810Z,97515.17
2018-09-04T03:44:44.993Z,97519.78
2018-09-04T03:47:14.164Z,97507.24
2018-09-04T03:49:43.350Z,97510.97
2018-09-04T03:52:12.550Z,97518.27
2018-09-04T03:54:41.755Z,97522.00
2018-09-04T03:57:11.197Z,97521.49
2018-09-04T03:59:40.333Z,97518.45
2018-09-04T04:02:09.515Z,97519.47
2018-09-04T04:04:38.662Z,97522.70
2018-09-04T04:07:07.877Z,97518.80
2018-09-04T04:09:37.003Z,97514.73
2018-09-04T04:12:06.573Z,97519.83
2018-09-04T04:14:35.662Z,97516.81
2018-09-04T04:17:04.877Z,97508.33
2018-09-04T04:19:34.023Z,97520.55
2018-09-04T04:22:03.171Z,97510.71
2018-09-04T04:24:32.297Z,97514.95
2018-09-04T04:27:01.720Z,97521.73
2018-09-04T04:29:31.124Z,97520.89
2018-09-04T04:32:00.254Z,97525.14
2018-09-04T04:34:29.606Z,97523.96
2018-09-04T04:36:59.053Z,97531.59
2018-09-04T04:39:28.243Z,97530.91
2018-09-04T04:41:57.405Z,97532.81
2018-09-04T04:44:27.231Z,97541.25
2018-09-04T04:46:56.416Z,97545.50
2018-09-04T04:49:25.547Z,97548.39
2018-09-04T04:51:54.681Z,97550.77
2018-09-04T04:54:24.180Z,97549.41
2018-09-04T04:56:53.320Z,97547.72
2018-09-04T04:59:22.449Z,97547.89
2018-09-04T05:01:51.589Z,97548.73
2018-09-04T05:04:21.004Z,97554.34
2018-09-04T05:06:50.204Z,97556.20
2018-09-04T05:09:19.355Z,97559.42
2018-09-04T05:11:49.432Z,97561.30
2018-09-04T05:14:20.100Z,97556.20
2018-09-04T05:16:49.256Z,97559.63
2018-09-04T05:19:18.387Z,97554.20
2018-09-04T05:21:47.584Z,97553.87
2018-09-04T05:24:17.137Z,97550.82
2018-09-04T05:26:46.298Z,97556.25
2018-09-04T05:29:15.492Z,97548.63
2018-09-04T05:31:50.089Z,97558.11
2018-09-04T05:34:19.286Z,97557.44
2018-09-04T05:36:50.102Z,97562.36
2018-09-04T05:39:19.442Z,97566.42
2018-09-04T05:41:48.599Z,97563.04
2018-09-04T05:44:18.165Z,97565.24
2018-09-04T05:46:50.315Z,97560.66
2018-09-04T05:49:21.659Z,97566.94
2018-09-04T05:51:51.238Z,97569.31
2018-09-04T05:54:20.520Z,97568.47
2018-09-04T05:56:49.673Z,97573.38
2018-09-04T05:59:18.930Z,97570.33
2018-09-04T06:01:48.196Z,97583.89
2018-09-04T06:04:17.613Z,97580.33
2018-09-04T06:06:46.742Z,97582.20
2018-09-04T06:09:15.999Z,97580.33
2018-09-04T06:11:45.262Z,97577.28
2018-09-04T06:14:14.512Z,97578.33
2018-09-04T06:16:43.829Z,97585.11
2018-09-04T06:19:12.971Z,97584.57
2018-09-04T06:21:42.092Z,97584.27
2018-09-04T06:24:11.248Z,97582.41
2018-09-04T06:26:40.832Z,97585.92
2018-09-04T06:29:09.976Z,97584.40
2018-09-04T06:31:39.073Z,97576.44
2018-09-04T06:34:08.696Z,97577.28
2018-09-04T06:36:38.294Z,97578.97
2018-09-04T06:39:09.322Z,97579.81
2018-09-04T06:41:38.446Z,97589.26
2018-09-04T06:44:08.109Z,97583.33
2018-09-04T06:46:37.846Z,97583.16
2018-09-04T06:49:07.140Z,97588.06
2018-09-04T06:51:36.434Z,97591.11
2018-09-04T06:54:05.604Z,97594.50
2018-09-04T06:56:35.948Z,97594.33
2018-09-04T06:59:05.425Z,97593.98
2018-09-04T07:01:34.876Z,97593.14
2018-09-04T07:04:05.044Z,97595.34
2018-09-04T07:06:34.445Z,97585.84
2018-09-04T07:09:04.436Z,97591.78
2018-09-04T07:11:34.071Z,97597.38
2018-09-04T07:14:03.387Z,97597.70
2018-09-04T07:16:32.696Z,97596.86
2018-09-04T07:19:02.642Z,97598.89
2018-09-04T07:21:32.123Z,97601.08
2018-09-04T07:24:01.576Z,97606.68
2018-09-04T07:26:31.110Z,97599.39
2018-09-04T07:29:00.684Z,97602.77
2018-09-04T07:31:30.349Z,97607.48
2018-09-04T07:33:59.782Z,97600.36
2018-09-04T07:36:29.067Z,97612.39
2018-09-04T07:38:58.533Z,97607.98
2018-09-04T07:41:28.508Z,97609.69
2018-09-04T07:43:58.348Z,97610.02
2018-09-04T07:46:27.882Z,97610.69
2018-09-04T07:48:57.399Z,97611.02
2018-09-04T07:51:26.880Z,97603.05
2018-09-04T07:53:56.215Z,97606.61
2018-09-04T07:56:25.858Z,97606.06
2018-09-04T07:58:55.116Z,97604.70
2018-09-04T08:01:24.543Z,97615.39
2018-09-04T08:03:53.703Z,97614.87
2018-09-04T08:06:23.372Z,97610.30
2018-09-04T08:08:52.803Z,97606.56
2018-09-04T08:11:22.540Z,97600.11
2018-09-04T08:13:53.370Z,97603.16
2018-09-04T08:16:22.739Z,97612.66
2018-09-04T08:18:52.469Z,97613.50
2018-09-04T08:21:31.844Z,97619.27
2018-09-04T08:24:04.569Z,97615.02
2018-09-04T08:26:34.321Z,97620.75
2018-09-04T08:29:04.044Z,97621.09
2018-09-04T08:31:33.346Z,97626.84
2018-09-04T08:34:02.752Z,97622.27
2018-09-04T08:36:32.189Z,97628.88
2018-09-04T08:39:02.157Z,97633.80
2018-09-04T08:41:31.600Z,97629.55
2018-09-04T08:44:01.296Z,97627.17
2018-09-04T08:46:30.682Z,97631.58
2018-09-04T08:49:00.468Z,97626.44
2018-09-04T08:51:29.683Z,97631.97
2018-09-04T08:53:59.080Z,97633.72
2018-09-04T08:56:28.463Z,97631.62
2018-09-04T08:58:57.928Z,97634.09
2018-09-04T09:01:27.404Z,97632.92
2018-09-04T09:03:57.221Z,97625.33
2018-09-04T09:06:26.739Z,97619.89
2018-09-04T09:08:56.332Z,97620.20
2018-09-04T09:11:25.425Z,97621.38
2018-09-04T09:13:55.122Z,97621.38
2018-09-04T09:16:24.729Z,97627.14
2018-09-04T09:18:54.238Z,97621.71
2018-09-04T09:21:23.666Z,97618.81
2018-09-04T09:23:53.571Z,97616.77
2018-09-04T09:26:22.892Z,97617.95
2018-09-04T09:28:52.287Z,97612.83
2018-09-04T09:31:21.421Z,97614.85
2018-09-04T09:33:51.184Z,97616.70
2018-09-04T09:36:20.369Z,97611.60
2018-09-04T09:38:50.116Z,97610.70
2018-09-04T09:41:19.548Z,97606.78
2018-09-04T09:43:49.019Z,97609.65
2018-09-04T09:46:18.432Z,97611.19
2018-09-04T09:48:47.615Z,97612.52
2018-09-04T09:51:17.042Z,97611.44
2018-09-04T09:53:46.246Z,97616.20
2018-09-04T09:56:15.419Z,97611.44
2018-09-04T09:58:44.545Z,97616.18
2018-09-04T10:01:18.873Z,97611.77
2018-09-04T10:03:53.252Z,97615.67
2018-09-04T10:06:22.829Z,97614.16
2018-09-04T10:08:52.193Z,97613.11
2018-09-04T10:11:21.414Z,97606.14
2018-09-04T10:13:50.696Z,97610.36
2018-09-04T10:16:20.121Z,97604.93
2018-09-04T10:18:49.456Z,97599.14
2018-09-04T10:21:18.791Z,97603.55
2018-09-04T10:23:48.288Z,97599.77
2018-09-04T10:26:17.550Z,97590.77
2018-09-04T10:28:46.692Z,97602.30
2018-09-04T10:31:16.352Z,97597.02
2018-09-04T10:33:45.512Z,97598.20
2018-09-04T10:36:15.173Z,97593.97
2018-09-04T10:38:44.489Z,97596.17
2018-09-04T10:41:14.924Z,97592.25
2018-09-04T10:43:44.044Z,97592.59
2018-09-04T10:46:14.676Z,97590.38
2018-09-04T10:48:43.812Z,97586.75
2018-09-04T10:51:12.981Z,97584.88
2018-09-04T10:53:42.104Z,97580.81
2018-09-04T10:56:11.733Z,97583.02
2018-09-04T10:58:40.916Z,97581.98
2018-09-04T11:01:10.037Z,97582.31
2018-09-04T11:03:39.165Z,97578.75
2018-09-04T11:06:08.855Z,97584.01
2018-09-04T11:08:38.012Z,97572.63
2018-09-04T11:11:07.112Z,97573.80
2018-09-04T11:13:36.213Z,97577.36
2018-09-04T11:16:05.357Z,97576.97
2018-09-04T11:18:34.776Z,97581.95
2018-09-04T11:21:03.912Z,97576.13
2018-09-04T11:23:33.040Z,97577.30
2018-09-04T11:26:02.176Z,97574.58
2018-09-04T11:28:31.710Z,97574.40
2018-09-04T11:31:01.085Z,97568.12
2018-09-04T11:33:30.247Z,97563.86
2018-09-04T11:35:59.506Z,97574.73
2018-09-04T11:38:28.713Z,97575.91
2018-09-04T11:40:57.901Z,97572.02
2018-09-04T11:43:27.024Z,97570.91
2018-09-04T11:45:56.197Z,97568.72
2018-09-04T11:48:25.592Z,97571.31
2018-09-04T11:50:54.717Z,97571.83
2018-09-04T11:53:23.859Z,97569.23
2018-09-04T11:55:52.988Z,97571.06
2018-09-04T11:58:22.131Z,97568.86
2018-09-04T12:00:51.935Z,97568.02
2018-09-04T12:03:21.162Z,97566.14
2018-09-04T12:05:50.362Z,97563.42
2018-09-04T12:08:19.515Z,97564.60
2018-09-04T12:10:48.676Z,97571.39
2018-09-04T12:13:22.971Z,97570.55
2018-09-04T12:15:52.401Z,97574.11
2018-09-04T12:18:21.512Z,97569.52
2018-09-04T12:20:51.991Z,97574.27
2018-09-04T12:23:21.146Z,97571.88
2018-09-04T12:25:51.914Z,97564.86
2018-09-04T12:28:21.028Z,97571.22
2018-09-04T12:30:50.507Z,97566.80
2018-09-04T12:33:19.625Z,97569.45
2018-09-04T12:35:49.543Z,97561.19
2018-09-04T12:38:20.209Z,97569.60
2018-09-04T12:40:49.986Z,97565.20
2018-09-04T12:43:19.531Z,97560.09
2018-09-04T12:45:52.698Z,97558.21
2018-09-04T12:48:30.264Z,97557.38
2018-09-04T12:51:01.639Z,97556.34
2018-09-04T12:53:31.770Z,97553.29
2018-09-04T12:56:00.920Z,97560.78
2018-09-04T12:58:30.052Z,97561.11
2018-09-04T13:00:59.641Z,97559.57
2018-09-04T13:03:29.964Z,97557.38
2018-09-04T13:05:59.479Z,97557.19
2018-09-04T13:08:31.013Z,97560.75
2018-09-04T13:11:00.627Z,97564.83
2018-09-04T13:13:29.832Z,97562.98
2018-09-04T13:16:00.766Z,97559.23
2018-09-04T13:18:30.794Z,97555.97
2018-09-04T13:21:02.887Z,97563.66
2018-09-04T13:23:33.028Z,97564.68
2018-09-04T13:26:02.205Z,97571.48
2018-09-04T13:28:31.948Z,97576.58
2018-09-04T13:31:01.448Z,97570.12
2018-09-04T13:33:30.597Z,97575.55
2018-09-04T13:36:00.190Z,97582.68
2018-09-04T13:38:29.336Z,97584.73
2018-09-04T13:41:03.876Z,97587.01
2018-09-04T13:43:33.080Z,97594.59
2018-09-04T13:46:02.303Z,97592.96
2018-09-04T13:48:33.520Z,97590.24
2018-09-04T13:51:02.789Z,97600.09
2018-09-04T13:53:32.004Z,97598.21
2018-09-04T13:56:01.152Z,97601.48
2018-09-04T13:58:30.351Z,97595.71
2018-09-04T14:00:59.482Z,97585.17
2018-09-04T14:03:29.328Z,97581.09
2018-09-04T14:05:58.852Z,97578.74
2018-09-04T14:08:27.955Z,97575.17
2018-09-04T14:10:58.759Z,97585.23
2018-09-04T14:13:27.915Z,97579.47
2018-09-04T14:16:00.025Z,97596.62
2018-09-04T14:18:29.194Z,97607.67
2018-09-04T14:20:58.811Z,97605.47
2018-09-04T14:23:32.989Z,97598.86
2018-09-04T14:26:06.294Z,97598.02
2018-09-04T14:28:42.541Z,97599.04
2018-09-04T14:31:05.473Z,97590.04
2018-09-04T14:33:34.747Z,97589.53
2018-09-04T14:36:04.210Z,97581.89
2018-09-04T14:38:33.340Z,97592.42
2018-09-04T14:41:02.542Z,97597.53
2018-09-04T14:43:31.724Z,97587.72
2018-09-04T14:46:00.885Z,97588.23
2018-09-04T14:48:30.475Z,97589.77
2018-09-04T14:51:00.089Z,97588.75
2018-09-04T14:53:29.563Z,97596.90
2018-09-04T14:56:00.701Z,97603.03
2018-09-04T14:58:30.448Z,97604.05
2018-09-04T15:01:00.059Z,97599.65
2018-09-04T15:03:29.631Z,97600.67
2018-09-04T15:05:59.271Z,97604.75
2018-09-04T15:08:28.780Z,97606.11
2018-09-04T15:10:57.973Z,97612.75
2018-09-04T15:13:27.191Z,97612.23
2018-09-04T15:15:56.391Z,97615.47
2018-09-04T15:18:25.788Z,97614.11
2018-09-04T15:20:54.984Z,97624.47
2018-09-04T15:23:24.108Z,97622.48
2018-09-04T15:25:53.388Z,97616.20
2018-09-04T15:28:22.888Z,97610.43
2018-09-04T15:30:52.409Z,97604.99
2018-09-04T15:36:31.886Z,97607.05
2018-09-04T15:39:04.025Z,97602.28
2018-09-04T15:41:36.236Z,97609.77
2018-09-04T15:44:08.778Z,97615.20
2018-09-04T15:46:40.159Z,97612.66
2018-09-04T15:49:15.740Z,97611.81
2018-09-04T15:51:45.482Z,97605.87
2018-09-04T15:54:15.163Z,97605.02
2018-09-04T15:56:44.977Z,97601.13
2018-09-04T15:59:23.602Z,97600.28
2018-09-04T16:01:53.379Z,97603.55
2018-09-04T16:04:24.844Z,97601.34
2018-09-04T16:06:55.077Z,97597.27
2018-09-04T16:09:24.990Z,97593.37
2018-09-04T16:11:54.776Z,97596.42
2018-09-04T16:14:24.460Z,97589.30
2018-09-04T16:16:54.219Z,97582.69
2018-09-04T16:19:24.452Z,97577.58
2018-09-04T16:21:56.611Z,97569.44
2018-09-04T16:24:27.299Z,97575.89
2018-09-04T16:27:07.832Z,97573.36
2018-09-04T16:29:39.829Z,97571.16
2018-09-04T16:32:09.589Z,97574.72
2018-09-04T16:34:39.264Z,97581.51
2018-09-04T16:37:08.987Z,97582.86
2018-09-04T16:39:43.142Z,97589.84
2018-09-04T16:42:27.703Z,97594.76
2018-09-04T16:44:58.811Z,97600.19
2018-09-04T16:47:28.733Z,97606.65
2018-09-04T16:49:58.461Z,97603.09
2018-09-04T16:52:28.265Z,97601.22
2018-09-04T16:55:11.921Z,97606.31
2018-09-04T16:57:57.362Z,97603.59
2018-09-04T17:00:27.148Z,97610.09
2018-09-04T17:02:56.697Z,97611.96
2018-09-04T17:05:26.707Z,97606.53
2018-09-04T17:07:57.485Z,97614.16
2018-09-04T17:10:27.003Z,97607.52
2018-09-04T17:12:57.543Z,97609.72
2018-09-04T17:15:27.254Z,97610.75
2018-09-04T17:17:57.536Z,97611.96
2018-09-04T17:20:27.275Z,97609.91
2018-09-04T17:22:56.851Z,97612.11
2018-09-04T17:25:26.500Z,97618.05
2018-09-04T17:28:00.344Z,97610.42
2018-09-04T17:30:33.070Z,97610.59
2018-09-04T17:33:03.519Z,97612.28
2018-09-04T17:35:33.161Z,97617.39
2018-09-04T17:38:03.238Z,97615.52
2018-09-04T17:40:32.990Z,97618.05
2018-09-04T17:43:02.723Z,97622.64
2018-09-04T17:45:32.831Z,97628.92
2018-09-04T17:48:02.712Z,97627.73
2018-09-04T17:50:32.216Z,97625.35
2018-09-04T17:53:01.924Z,97628.07
2018-09-04T17:55:31.462Z,97626.38
2018-09-04T17:58:01.280Z,97629.79
2018-09-04T18:00:31.480Z,97629.79
2018-09-04T18:03:01.385Z,97631.66
2018-09-04T18:05:31.160Z,97641.34
2018-09-04T18:08:00.937Z,97641.04
2018-09-04T18:10:31.051Z,97642.40
2018-09-04T18:13:01.982Z,97636.13
2018-09-04T18:15:32.104Z,97638.50
2018-09-04T18:18:02.492Z,97641.40
2018-09-04T18:20:32.962Z,97642.42
2018-09-04T18:23:02.845Z,97642.94
2018-09-04T18:25:33.123Z,97640.22
2018-09-04T18:28:02.928Z,97647.19
2018-09-04T18:30:32.953Z,97640.39
2018-09-04T18:33:03.089Z,97633.27
2018-09-04T18:35:32.860Z,97636.83
2018-09-04T18:38:02.571Z,97638.37
2018-09-04T18:40:32.812Z,97641.30
2018-09-04T18:43:03.364Z,97644.52
2018-09-04T18:45:49.206Z,97646.39
2018-09-04T18:48:19.529Z,97647.41
2018-09-04T18:50:49.446Z,97650.64
2018-09-04T18:53:19.230Z,97658.45
2018-09-04T18:55:49.184Z,97657.61
2018-09-04T18:58:18.853Z,97654.05
2018-09-04T19:00:48.514Z,97660.84
2018-09-04T19:03:18.200Z,97658.30
2018-09-04T19:05:47.908Z,97668.31
2018-09-04T19:08:17.632Z,97668.19
2018-09-04T19:10:47.304Z,97664.62
2018-09-04T19:13:17.124Z,97667.00
2018-09-04T19:15:46.907Z,97667.18
2018-09-04T19:18:17.032Z,97677.53
2018-09-04T19:20:47.597Z,97678.05
2018-09-04T19:23:17.418Z,97674.48
2018-09-04T19:25:47.059Z,97670.58
2018-09-04T19:28:16.838Z,97674.66
2018-09-04T19:30:46.789Z,97668.37
2018-09-04T19:33:16.642Z,97673.47
2018-09-04T19:35:46.741Z,97665.00
2018-09-04T19:38:16.596Z,97667.92
2018-09-04T19:40:46.298Z,97669.27
2018-09-04T19:43:16.113Z,97672.84
2018-09-04T19:45:45.945Z,97668.09
2018-09-04T19:48:15.725Z,97676.23
2018-09-04T19:50:45.644Z,97667.76
2018-09-04T19:53:15.548Z,97673.70
2018-09-04T19:55:45.540Z,97667.09
2018-09-04T19:58:15.389Z,97673.88
2018-09-04T20:00:45.235Z,97676.25
2018-09-04T20:03:15.126Z,97679.14
2018-09-04T20:05:44.906Z,97683.73
2018-09-04T20:08:14.897Z,97684.23
2018-09-04T20:10:44.577Z,97681.73
2018-09-04T20:13:14.745Z,97688.69
2018-09-04T20:15:44.307Z,97685.98
2018-09-04T20:18:13.911Z,97684.79
2018-09-04T20:20:43.659Z,97682.08
2018-09-04T20:23:13.888Z,97682.59
2018-09-04T20:25:43.792Z,97687.51
2018-09-04T20:28:13.540Z,97684.97
2018-09-04T20:30:43.650Z,97684.63
2018-09-04T20:33:13.366Z,97695.16
2018-09-04T20:35:43.057Z,97698.38
2018-09-04T20:38:12.775Z,97692.64
2018-09-04T20:40:42.778Z,97696.89
2018-09-04T20:43:12.428Z,97686.20
2018-09-04T20:45:43.569Z,97688.07
2018-09-04T20:48:16.727Z,97693.67
2018-09-04T20:50:52.587Z,97691.14
2018-09-04T20:53:22.377Z,97697.41
2018-09-04T20:55:52.237Z,97692.16
2018-09-04T20:58:32.858Z,97694.87
2018-09-04T21:01:13.524Z,97696.73
2018-09-04T21:06:51.465Z,97699.66
2018-09-04T21:09:39.569Z,97697.11
2018-09-04T21:12:09.362Z,97698.65
2018-09-04T21:14:39.136Z,97695.93
2018-09-04T21:17:09.026Z,97704.25
2018-09-04T21:19:38.852Z,97701.53
2018-09-04T21:22:08.532Z,97698.48
2018-09-04T21:24:38.269Z,97696.79
2018-09-04T21:27:08.064Z,97696.45
2018-09-04T21:29:38.180Z,97703.23
2018-09-04T21:32:07.873Z,97693.94
2018-09-04T21:34:37.930Z,97701.23
2018-09-04T21:37:07.623Z,97694.11
2018-09-04T21:39:37.290Z,97688.02
2018-09-04T21:42:07.562Z,97691.06
2018-09-04T21:44:37.347Z,97694.80
2018-09-04T21:47:07.372Z,97691.75
2018-09-04T21:49:37.040Z,97688.70
2018-09-04T21:52:06.992Z,97689.72
2018-09-04T21:54:36.598Z,97688.36
2018-09-04T21:57:06.695Z,97683.95
2018-09-04T21:59:36.522Z,97692.09
2018-09-04T22:02:06.575Z,97688.23
2018-09-04T22:04:36.536Z,97691.45
2018-09-04T22:07:06.552Z,97685.52
2018-09-04T22:09:38.821Z,97691.63
2018-09-04T22:12:10.502Z,97689.76
2018-09-04T22:14:41.124Z,97688.91
2018-09-04T22:17:10.794Z,97690.44
2018-09-04T22:19:40.408Z,97687.39
2018-09-04T22:22:10.340Z,97687.39
2018-09-04T22:24:40.107Z,97688.41
2018-09-04T22:27:11.061Z,97690.10
2018-09-04T22:29:43.718Z,97683.83
2018-09-04T22:32:14.168Z,97688.91
2018-09-04T22:34:45.996Z,97687.05
2018-09-04T22:37:16.465Z,97683.49
2018-09-04T22:39:46.239Z,97684.51
2018-09-04T22:42:16.531Z,97683.66
2018-09-04T22:44:46.244Z,97683.66
2018-09-04T22:47:15.915Z,97683.36
2018-09-04T22:49:51.035Z,97675.70
2018-09-04T22:52:24.928Z,97683.50
2018-09-04T22:54:57.986Z,97674.84
2018-09-04T22:57:28.178Z,97675.87
2018-09-04T22:59:58.234Z,97679.94
2018-09-04T23:02:28.009Z,97677.73
2018-09-04T23:04:57.748Z,97673.33
2018-09-04T23:07:27.766Z,97675.53
2018-09-04T23:09:57.528Z,97679.27
2018-09-04T23:12:27.287Z,97672.98
2018-09-04T23:14:56.988Z,97672.98
2018-09-04T23:17:26.620Z,97670.45
2018-09-04T23:19:56.767Z,97673.16
2018-09-04T23:22:26.414Z,97670.11
2018-09-04T23:24:56.497Z,97659.77
2018-09-04T23:27:27.680Z,97653.50
2018-09-04T23:29:57.828Z,97658.93
2018-09-04T23:32:27.628Z,97662.69
2018-09-04T23:34:57.359Z,97655.06
2018-09-04T23:37:27.203Z,97655.58
2018-09-04T23:39:57.384Z,97657.44
2018-09-04T23:42:31.572Z,97656.93
2018-09-04T23:45:02.831Z,97650.32
2018-09-04T23:47:32.489Z,97650.32
2018-09-04T23:50:02.342Z,97652.19
2018-09-04T23:52:32.124Z,97652.52
2018-09-04T23:55:01.811Z,97651.34
2018-09-04T23:57:32.218Z,97655.41
